createdAt,value
2018-05-07T00:00:05.384Z,963.41
2018-05-07T00:00:45.913Z,963.39
2018-05-07T00:01:26.435Z,963.4
2018-05-07T00:02:06.963Z,963.4
2018-05-07T00:02:47.486Z,963.42
2018-05-07T00:03:28.017Z,963.43
2018-05-07T00:04:08.542Z,963.41
2018-05-07T00:04:49.086Z,963.41
2018-05-07T00:05:29.609Z,963.43
2018-05-07T00:06:10.230Z,963.43
2018-05-07T00:06:50.644Z,963.43
2018-05-07T00:07:31.167Z,963.43
2018-05-07T00:08:11.689Z,963.41
2018-05-07T00:08:52.215Z,963.4
2018-05-07T00:09:32.756Z,963.42
2018-05-07T00:10:13.296Z,963.38
2018-05-07T00:10:53.791Z,963.41
2018-05-07T00:11:34.348Z,963.41
2018-05-07T00:12:14.833Z,963.39
2018-05-07T00:12:55.349Z,963.44
2018-05-07T00:13:35.878Z,963.36
2018-05-07T00:14:16.374Z,963.36
2018-05-07T00:14:56.894Z,963.37
2018-05-07T00:15:37.458Z,963.41
2018-05-07T00:16:17.954Z,963.36
2018-05-07T00:16:58.471Z,963.34
2018-05-07T00:17:38.994Z,963.36
2018-05-07T00:18:19.525Z,963.37
2018-05-07T00:19:00.049Z,963.36
2018-05-07T00:19:40.576Z,963.38
2018-05-07T00:20:21.083Z,963.36
2018-05-07T00:21:01.575Z,963.36
2018-05-07T00:21:42.103Z,963.34
2018-05-07T00:22:22.631Z,963.38
2018-05-07T00:23:03.153Z,963.35
2018-05-07T00:23:43.689Z,963.35
2018-05-07T00:24:24.203Z,963.38
2018-05-07T00:25:04.742Z,963.35
2018-05-07T00:25:45.260Z,963.36
2018-05-07T00:26:25.804Z,963.35
2018-05-07T00:27:06.349Z,963.33
2018-05-07T00:27:46.840Z,963.36
2018-05-07T00:28:27.355Z,963.36
2018-05-07T00:29:07.875Z,963.37
2018-05-07T00:29:48.394Z,963.35
2018-05-07T00:30:28.924Z,963.37
2018-05-07T00:31:09.448Z,963.37
2018-05-07T00:31:49.965Z,963.35
2018-05-07T00:32:30.487Z,963.35
2018-05-07T00:33:11.076Z,963.33
2018-05-07T00:33:51.539Z,963.32
2018-05-07T00:34:32.049Z,963.33
2018-05-07T00:35:12.568Z,963.3
2018-05-07T00:35:53.096Z,963.3
2018-05-07T00:36:33.622Z,963.3
2018-05-07T00:37:14.139Z,963.27
2018-05-07T00:37:54.682Z,963.27
2018-05-07T00:38:35.218Z,963.27
2018-05-07T00:39:15.729Z,963.22
2018-05-07T00:39:56.259Z,963.22
2018-05-07T00:40:36.784Z,963.23
2018-05-07T00:41:17.314Z,963.28
2018-05-07T00:41:57.852Z,963.24
2018-05-07T00:42:38.378Z,963.25
2018-05-07T00:43:18.900Z,963.23
2018-05-07T00:43:59.437Z,963.22
2018-05-07T00:44:39.955Z,963.24
2018-05-07T00:45:20.482Z,963.23
2018-05-07T00:46:00.998Z,963.24
2018-05-07T00:46:41.528Z,963.23
2018-05-07T00:47:22.059Z,963.23
2018-05-07T00:48:02.587Z,963.23
2018-05-07T00:48:43.102Z,963.23
2018-05-07T00:49:23.622Z,963.17
2018-05-07T00:50:04.152Z,963.21
2018-05-07T00:50:44.663Z,963.18
2018-05-07T00:51:25.188Z,963.2
2018-05-07T00:52:05.709Z,963.18
2018-05-07T00:52:46.223Z,963.17
2018-05-07T00:53:26.751Z,963.18
2018-05-07T00:54:07.270Z,963.18
2018-05-07T00:54:48.033Z,963.17
2018-05-07T00:55:28.566Z,963.16
2018-05-07T00:56:09.088Z,963.16
2018-05-07T00:56:49.612Z,963.2
2018-05-07T00:57:30.141Z,963.2
2018-05-07T00:58:10.664Z,963.18
2018-05-07T00:58:51.182Z,963.22
2018-05-07T00:59:31.716Z,963.16
2018-05-07T01:00:12.236Z,963.18
2018-05-07T01:00:52.767Z,963.13
2018-05-07T01:01:33.305Z,963.2
2018-05-07T01:02:13.817Z,963.2
2018-05-07T01:02:54.340Z,963.21
2018-05-07T01:03:34.872Z,963.19
2018-05-07T01:04:15.393Z,963.17
2018-05-07T01:04:55.919Z,963.18
2018-05-07T01:05:36.438Z,963.16
2018-05-07T01:06:16.969Z,963.14
2018-05-07T01:06:57.495Z,963.11
2018-05-07T01:07:38.028Z,963.17
2018-05-07T01:08:18.554Z,963.15
2018-05-07T01:08:59.078Z,963.14
2018-05-07T01:09:39.605Z,963.12
2018-05-07T01:10:20.125Z,963.15
2018-05-07T01:11:00.648Z,963.17
2018-05-07T01:11:41.162Z,963.15
2018-05-07T01:12:21.671Z,963.14
2018-05-07T01:13:02.193Z,963.15
2018-05-07T01:13:42.720Z,963.13
2018-05-07T01:14:23.239Z,963.13
2018-05-07T01:15:03.751Z,963.14
2018-05-07T01:15:44.314Z,963.13
2018-05-07T01:16:24.804Z,963.13
2018-05-07T01:17:05.326Z,963.11
2018-05-07T01:17:45.848Z,963.1
2018-05-07T01:18:26.373Z,963.05
2018-05-07T01:19:06.906Z,963.08
2018-05-07T01:19:47.428Z,963.08
2018-05-07T01:20:27.958Z,963.07
2018-05-07T01:21:08.490Z,963.12
2018-05-07T01:21:49.004Z,963.1
2018-05-07T01:22:29.520Z,963.1
2018-05-07T01:23:10.041Z,963.1
2018-05-07T01:23:50.565Z,963.09
2018-05-07T01:24:31.082Z,963.08
2018-05-07T01:25:11.610Z,963.1
2018-05-07T01:25:52.136Z,963.08
2018-05-07T01:26:32.650Z,963.08
2018-05-07T01:27:13.179Z,963.1
2018-05-07T01:27:53.693Z,963.14
2018-05-07T01:28:34.213Z,963.12
2018-05-07T01:29:14.736Z,963.1
2018-05-07T01:29:55.252Z,963.11
2018-05-07T01:30:35.768Z,963.14
2018-05-07T01:31:16.288Z,963.11
2018-05-07T01:31:56.803Z,963.18
2018-05-07T01:32:37.319Z,963.17
2018-05-07T01:33:17.828Z,963.14
2018-05-07T01:33:58.353Z,963.13
2018-05-07T01:34:38.872Z,963.15
2018-05-07T01:35:19.404Z,963.14
2018-05-07T01:35:59.906Z,963.15
2018-05-07T01:36:40.430Z,963.2
2018-05-07T01:37:20.949Z,963.17
2018-05-07T01:38:01.479Z,963.16
2018-05-07T01:38:42.004Z,963.19
2018-05-07T01:39:22.532Z,963.19
2018-05-07T01:40:03.056Z,963.2
2018-05-07T01:40:43.583Z,963.21
2018-05-07T01:41:24.085Z,963.17
2018-05-07T01:42:04.603Z,963.18
2018-05-07T01:42:45.103Z,963.19
2018-05-07T01:43:25.619Z,963.19
2018-05-07T01:44:06.146Z,963.17
2018-05-07T01:44:46.683Z,963.18
2018-05-07T01:45:27.197Z,963.2
2018-05-07T01:46:07.722Z,963.18
2018-05-07T01:46:48.241Z,963.21
2018-05-07T01:47:28.763Z,963.16
2018-05-07T01:48:09.282Z,963.17
2018-05-07T01:48:49.808Z,963.18
2018-05-07T01:49:30.333Z,963.19
2018-05-07T01:50:10.833Z,963.2
2018-05-07T01:50:51.351Z,963.15
2018-05-07T01:51:31.873Z,963.16
2018-05-07T01:52:12.385Z,963.14
2018-05-07T01:52:52.909Z,963.15
2018-05-07T01:53:33.439Z,963.15
2018-05-07T01:54:14.094Z,963.17
2018-05-07T01:54:54.610Z,963.19
2018-05-07T01:55:35.135Z,963.17
2018-05-07T01:56:15.680Z,963.15
2018-05-07T01:56:56.214Z,963.16
2018-05-07T01:57:36.722Z,963.19
2018-05-07T01:58:17.265Z,963.2
2018-05-07T01:58:57.792Z,963.18
2018-05-07T01:59:38.311Z,963.2
2018-05-07T02:00:18.843Z,963.17
2018-05-07T02:00:59.362Z,963.21
2018-05-07T02:01:39.889Z,963.26
2018-05-07T02:02:20.413Z,963.19
2018-05-07T02:03:00.925Z,963.18
2018-05-07T02:03:41.447Z,963.25
2018-05-07T02:04:21.972Z,963.18
2018-05-07T02:05:02.472Z,963.19
2018-05-07T02:05:42.999Z,963.23
2018-05-07T02:06:23.517Z,963.2
2018-05-07T02:07:04.036Z,963.19
2018-05-07T02:07:44.562Z,963.19
2018-05-07T02:08:25.090Z,963.2
2018-05-07T02:09:05.614Z,963.19
2018-05-07T02:09:46.157Z,963.21
2018-05-07T02:10:26.654Z,963.18
2018-05-07T02:11:07.182Z,963.19
2018-05-07T02:11:47.708Z,963.24
2018-05-07T02:12:28.233Z,963.21
2018-05-07T02:13:08.756Z,963.23
2018-05-07T02:13:49.285Z,963.23
2018-05-07T02:14:29.806Z,963.23
2018-05-07T02:15:10.332Z,963.27
2018-05-07T02:15:50.857Z,963.26
2018-05-07T02:16:31.378Z,963.22
2018-05-07T02:17:11.906Z,963.24
2018-05-07T02:17:52.431Z,963.25
2018-05-07T02:18:32.955Z,963.22
2018-05-07T02:19:13.486Z,963.28
2018-05-07T02:19:54.003Z,963.26
2018-05-07T02:20:34.532Z,963.27
2018-05-07T02:21:15.054Z,963.27
2018-05-07T02:21:55.582Z,963.25
2018-05-07T02:22:36.110Z,963.25
2018-05-07T02:23:16.646Z,963.25
2018-05-07T02:23:57.172Z,963.26
2018-05-07T02:24:37.701Z,963.24
2018-05-07T02:25:18.219Z,963.23
2018-05-07T02:25:58.742Z,963.2
2018-05-07T02:26:39.269Z,963.23
2018-05-07T02:27:19.795Z,963.23
2018-05-07T02:28:00.315Z,963.22
2018-05-07T02:28:40.843Z,963.24
2018-05-07T02:29:21.366Z,963.2
2018-05-07T02:30:01.879Z,963.2
2018-05-07T02:30:42.392Z,963.19
2018-05-07T02:31:22.973Z,963.18
2018-05-07T02:32:03.447Z,963.17
2018-05-07T02:32:43.956Z,963.18
2018-05-07T02:33:24.474Z,963.15
2018-05-07T02:34:05.019Z,963.16
2018-05-07T02:34:45.549Z,963.16
2018-05-07T02:35:26.076Z,963.15
2018-05-07T02:36:06.590Z,963.13
2018-05-07T02:36:47.126Z,963.11
2018-05-07T02:37:27.640Z,963.09
2018-05-07T02:38:08.165Z,963.13
2018-05-07T02:38:48.691Z,963.08
2018-05-07T02:39:29.207Z,963.08
2018-05-07T02:40:09.723Z,963.07
2018-05-07T02:40:50.237Z,963.07
2018-05-07T02:41:30.755Z,963.05
2018-05-07T02:42:11.278Z,963.07
2018-05-07T02:42:51.798Z,963.06
2018-05-07T02:43:32.329Z,963.1
2018-05-07T02:44:12.856Z,963.1
2018-05-07T02:44:53.381Z,963.1
2018-05-07T02:45:33.872Z,963.09
2018-05-07T02:46:14.367Z,963.1
2018-05-07T02:46:54.876Z,963.09
2018-05-07T02:47:35.423Z,963.07
2018-05-07T02:48:15.905Z,963.05
2018-05-07T02:48:56.431Z,963.06
2018-05-07T02:49:36.921Z,963.08
2018-05-07T02:50:17.451Z,963.05
2018-05-07T02:50:57.978Z,963.07
2018-05-07T02:51:38.506Z,963.07
2018-05-07T02:52:19.007Z,963.09
2018-05-07T02:52:59.491Z,963.04
2018-05-07T02:53:40.023Z,963.05
2018-05-07T02:54:20.582Z,963
2018-05-07T02:55:01.115Z,963.06
2018-05-07T02:55:41.591Z,963.05
2018-05-07T02:56:22.096Z,963.03
2018-05-07T02:57:02.612Z,963.01
2018-05-07T02:57:43.126Z,963.04
2018-05-07T02:58:23.629Z,963.05
2018-05-07T02:59:04.137Z,963.04
2018-05-07T02:59:44.664Z,963.02
2018-05-07T03:00:25.195Z,963.04
2018-05-07T03:01:05.707Z,963.01
2018-05-07T03:01:46.200Z,963
2018-05-07T03:02:26.778Z,962.98
2018-05-07T03:03:07.236Z,962.99
2018-05-07T03:03:47.770Z,963.01
2018-05-07T03:04:28.293Z,962.99
2018-05-07T03:05:08.821Z,962.95
2018-05-07T03:05:49.346Z,962.98
2018-05-07T03:06:29.870Z,962.92
2018-05-07T03:07:10.394Z,962.93
2018-05-07T03:07:50.947Z,962.92
2018-05-07T03:08:31.466Z,962.9
2018-05-07T03:09:11.981Z,962.87
2018-05-07T03:09:52.545Z,962.91
2018-05-07T03:10:33.073Z,962.91
2018-05-07T03:11:13.598Z,962.89
2018-05-07T03:11:54.126Z,962.91
2018-05-07T03:12:34.661Z,962.88
2018-05-07T03:13:15.186Z,962.89
2018-05-07T03:13:55.716Z,962.87
2018-05-07T03:14:36.263Z,962.88
2018-05-07T03:15:16.792Z,962.85
2018-05-07T03:15:57.316Z,962.87
2018-05-07T03:16:37.860Z,962.88
2018-05-07T03:17:18.421Z,962.83
2018-05-07T03:17:58.941Z,962.83
2018-05-07T03:18:39.460Z,962.83
2018-05-07T03:19:19.983Z,962.86
2018-05-07T03:20:00.504Z,962.86
2018-05-07T03:20:41.038Z,962.82
2018-05-07T03:21:21.521Z,962.85
2018-05-07T03:22:02.178Z,962.81
2018-05-07T03:22:42.554Z,962.85
2018-05-07T03:23:23.062Z,962.84
2018-05-07T03:24:03.568Z,962.81
2018-05-07T03:24:44.112Z,962.82
2018-05-07T03:25:24.622Z,962.81
2018-05-07T03:26:05.137Z,962.82
2018-05-07T03:26:45.653Z,962.82
2018-05-07T03:27:26.188Z,962.8
2018-05-07T03:28:06.713Z,962.8
2018-05-07T03:28:47.513Z,962.81
2018-05-07T03:29:28.042Z,962.82
2018-05-07T03:30:08.563Z,962.81
2018-05-07T03:30:49.051Z,962.84
2018-05-07T03:31:30.260Z,962.82
2018-05-07T03:32:10.644Z,962.82
2018-05-07T03:32:51.430Z,962.83
2018-05-07T03:33:32.603Z,962.81
2018-05-07T03:34:13.119Z,962.84
2018-05-07T03:34:53.746Z,962.84
2018-05-07T03:35:34.326Z,962.83
2018-05-07T03:36:14.881Z,962.84
2018-05-07T03:36:55.460Z,962.8
2018-05-07T03:37:36.914Z,962.84
2018-05-07T03:38:17.718Z,962.84
2018-05-07T03:38:58.180Z,962.87
2018-05-07T03:39:38.973Z,962.88
2018-05-07T03:40:19.936Z,962.86
2018-05-07T03:41:00.459Z,962.86
2018-05-07T03:41:41.041Z,962.83
2018-05-07T03:42:22.497Z,962.88
2018-05-07T03:43:03.195Z,962.83
2018-05-07T03:43:43.708Z,962.88
2018-05-07T03:44:24.215Z,962.87
2018-05-07T03:45:04.697Z,962.87
2018-05-07T03:45:45.200Z,962.85
2018-05-07T03:46:25.677Z,962.85
2018-05-07T03:47:06.170Z,962.88
2018-05-07T03:47:46.663Z,962.87
2018-05-07T03:48:27.159Z,962.83
2018-05-07T03:49:07.627Z,962.83
2018-05-07T03:49:48.144Z,962.8
2018-05-07T03:50:28.663Z,962.86
2018-05-07T03:51:09.179Z,962.85
2018-05-07T03:51:49.697Z,962.84
2018-05-07T03:52:30.212Z,962.83
2018-05-07T03:53:10.746Z,962.85
2018-05-07T03:53:51.273Z,962.83
2018-05-07T03:54:31.975Z,962.83
2018-05-07T03:55:12.471Z,962.83
2018-05-07T03:55:52.997Z,962.86
2018-05-07T03:56:33.520Z,962.82
2018-05-07T03:57:14.028Z,962.86
2018-05-07T03:57:54.544Z,962.86
2018-05-07T03:58:35.069Z,962.85
2018-05-07T03:59:15.575Z,962.84
2018-05-07T03:59:56.100Z,962.84
2018-05-07T04:00:36.619Z,962.85
2018-05-07T04:01:17.149Z,962.85
2018-05-07T04:01:57.682Z,962.79
2018-05-07T04:02:38.204Z,962.81
2018-05-07T04:03:18.719Z,962.84
2018-05-07T04:03:59.247Z,962.83
2018-05-07T04:04:39.782Z,962.85
2018-05-07T04:05:20.309Z,962.87
2018-05-07T04:06:00.840Z,962.84
2018-05-07T04:06:41.364Z,962.89
2018-05-07T04:07:21.962Z,962.86
2018-05-07T04:08:02.404Z,962.86
2018-05-07T04:08:42.932Z,962.87
2018-05-07T04:09:23.462Z,962.89
2018-05-07T04:10:03.988Z,962.92
2018-05-07T04:10:44.515Z,962.92
2018-05-07T04:11:25.040Z,962.96
2018-05-07T04:12:05.563Z,962.89
2018-05-07T04:12:46.092Z,962.9
2018-05-07T04:13:26.618Z,962.93
2018-05-07T04:14:07.143Z,962.92
2018-05-07T04:14:47.669Z,962.93
2018-05-07T04:15:28.205Z,962.88
2018-05-07T04:16:08.709Z,962.89
2018-05-07T04:16:49.233Z,962.91
2018-05-07T04:17:29.769Z,962.92
2018-05-07T04:18:10.294Z,962.9
2018-05-07T04:18:50.822Z,962.92
2018-05-07T04:19:31.345Z,962.93
2018-05-07T04:20:11.874Z,962.97
2018-05-07T04:20:52.393Z,962.96
2018-05-07T04:21:32.915Z,962.93
2018-05-07T04:22:13.443Z,962.95
2018-05-07T04:22:53.976Z,963.01
2018-05-07T04:23:34.582Z,962.94
2018-05-07T04:24:15.032Z,962.97
2018-05-07T04:24:55.560Z,962.94
2018-05-07T04:25:36.176Z,962.99
2018-05-07T04:26:16.612Z,962.99
2018-05-07T04:26:57.143Z,962.94
2018-05-07T04:27:37.668Z,962.94
2018-05-07T04:28:18.188Z,962.94
2018-05-07T04:28:58.710Z,962.91
2018-05-07T04:29:39.241Z,962.93
2018-05-07T04:30:19.771Z,962.94
2018-05-07T04:31:00.298Z,962.88
2018-05-07T04:31:40.828Z,962.94
2018-05-07T04:32:21.357Z,962.91
2018-05-07T04:33:01.867Z,962.9
2018-05-07T04:33:42.481Z,962.91
2018-05-07T04:34:22.916Z,962.9
2018-05-07T04:35:03.449Z,962.88
2018-05-07T04:35:43.974Z,962.91
2018-05-07T04:36:24.496Z,962.83
2018-05-07T04:37:05.025Z,962.88
2018-05-07T04:37:45.553Z,962.88
2018-05-07T04:38:26.079Z,962.86
2018-05-07T04:39:06.603Z,962.84
2018-05-07T04:39:47.120Z,962.85
2018-05-07T04:40:27.647Z,962.84
2018-05-07T04:41:08.171Z,962.87
2018-05-07T04:41:48.697Z,962.9
2018-05-07T04:42:29.220Z,962.91
2018-05-07T04:43:09.799Z,962.88
2018-05-07T04:43:50.277Z,962.87
2018-05-07T04:44:30.807Z,962.89
2018-05-07T04:45:11.336Z,962.89
2018-05-07T04:45:51.857Z,962.93
2018-05-07T04:46:32.423Z,962.87
2018-05-07T04:47:12.901Z,962.9
2018-05-07T04:47:53.425Z,962.88
2018-05-07T04:48:33.944Z,962.89
2018-05-07T04:49:14.458Z,962.91
2018-05-07T04:49:54.980Z,962.92
2018-05-07T04:50:35.502Z,962.91
2018-05-07T04:51:16.031Z,962.89
2018-05-07T04:51:56.554Z,962.89
2018-05-07T04:52:37.075Z,962.89
2018-05-07T04:53:17.602Z,962.85
2018-05-07T04:53:58.128Z,962.89
2018-05-07T04:54:38.656Z,962.92
2018-05-07T04:55:19.186Z,962.91
2018-05-07T04:55:59.697Z,962.95
2018-05-07T04:56:40.254Z,962.9
2018-05-07T04:57:20.754Z,962.92
2018-05-07T04:58:01.278Z,962.94
2018-05-07T04:58:41.806Z,962.93
2018-05-07T04:59:22.328Z,962.96
2018-05-07T05:00:02.857Z,962.94
2018-05-07T05:00:43.383Z,962.94
2018-05-07T05:01:23.906Z,962.93
2018-05-07T05:02:04.435Z,962.93
2018-05-07T05:02:44.968Z,962.97
2018-05-07T05:03:25.489Z,962.93
2018-05-07T05:04:06.016Z,962.95
2018-05-07T05:04:46.543Z,962.92
2018-05-07T05:05:27.066Z,962.92
2018-05-07T05:06:07.599Z,962.96
2018-05-07T05:06:48.127Z,962.94
2018-05-07T05:07:28.654Z,962.94
2018-05-07T05:08:09.185Z,962.96
2018-05-07T05:08:49.716Z,962.93
2018-05-07T05:09:30.245Z,962.95
2018-05-07T05:10:10.776Z,962.99
2018-05-07T05:10:51.310Z,962.94
2018-05-07T05:11:31.831Z,962.95
2018-05-07T05:12:12.362Z,962.96
2018-05-07T05:12:52.889Z,962.89
2018-05-07T05:13:33.416Z,962.88
2018-05-07T05:14:13.948Z,962.89
2018-05-07T05:14:54.472Z,962.88
2018-05-07T05:15:34.999Z,962.89
2018-05-07T05:16:15.532Z,962.9
2018-05-07T05:16:56.051Z,962.88
2018-05-07T05:17:36.580Z,962.93
2018-05-07T05:18:17.110Z,962.94
2018-05-07T05:18:57.645Z,962.95
2018-05-07T05:19:38.165Z,962.92
2018-05-07T05:20:18.692Z,962.96
2018-05-07T05:20:59.243Z,962.98
2018-05-07T05:21:39.752Z,962.93
2018-05-07T05:22:20.283Z,962.99
2018-05-07T05:23:00.810Z,962.99
2018-05-07T05:23:41.339Z,962.99
2018-05-07T05:24:21.869Z,963.04
2018-05-07T05:25:02.402Z,963.01
2018-05-07T05:25:42.935Z,963.02
2018-05-07T05:26:23.463Z,962.97
2018-05-07T05:27:03.991Z,963.03
2018-05-07T05:27:44.523Z,963
2018-05-07T05:28:25.050Z,963
2018-05-07T05:29:05.577Z,962.99
2018-05-07T05:29:46.104Z,963.01
2018-05-07T05:30:26.626Z,963.02
2018-05-07T05:31:07.154Z,963.03
2018-05-07T05:31:47.686Z,963.01
2018-05-07T05:32:28.211Z,963
2018-05-07T05:33:08.734Z,963.01
2018-05-07T05:33:49.261Z,963.03
2018-05-07T05:34:29.792Z,963.04
2018-05-07T05:35:10.320Z,963.05
2018-05-07T05:35:50.839Z,963.02
2018-05-07T05:36:31.368Z,962.97
2018-05-07T05:37:11.909Z,963.01
2018-05-07T05:37:52.426Z,962.98
2018-05-07T05:38:32.953Z,963.02
2018-05-07T05:39:13.481Z,962.96
2018-05-07T05:39:54.011Z,963
2018-05-07T05:40:34.543Z,963
2018-05-07T05:41:15.070Z,963.03
2018-05-07T05:41:55.601Z,963.03
2018-05-07T05:42:36.132Z,963.01
2018-05-07T05:43:16.660Z,963.02
2018-05-07T05:43:57.188Z,963.05
2018-05-07T05:44:37.712Z,963.02
2018-05-07T05:45:18.241Z,963.03
2018-05-07T05:45:58.777Z,962.99
2018-05-07T05:46:39.304Z,963.05
2018-05-07T05:47:19.835Z,963.02
2018-05-07T05:48:00.366Z,963.05
2018-05-07T05:48:40.895Z,963.06
2018-05-07T05:49:21.422Z,963.04
2018-05-07T05:50:01.978Z,963.03
2018-05-07T05:50:42.559Z,963.05
2018-05-07T05:51:23.007Z,963.1
2018-05-07T05:52:03.538Z,963.07
2018-05-07T05:52:44.067Z,963.02
2018-05-07T05:53:24.591Z,963.07
2018-05-07T05:54:05.118Z,963.07
2018-05-07T05:54:45.641Z,963.08
2018-05-07T05:55:26.170Z,963.11
2018-05-07T05:56:06.790Z,963.11
2018-05-07T05:56:47.228Z,963.13
2018-05-07T05:57:27.759Z,963.14
2018-05-07T05:58:08.286Z,963.07
2018-05-07T05:58:48.812Z,963.07
2018-05-07T05:59:29.341Z,963.11
2018-05-07T06:00:09.864Z,963.09
2018-05-07T06:00:50.394Z,963.08
2018-05-07T06:01:30.919Z,963.12
2018-05-07T06:02:11.449Z,963.09
2018-05-07T06:02:51.978Z,963.08
2018-05-07T06:03:32.504Z,963.08
2018-05-07T06:04:13.029Z,963.07
2018-05-07T06:04:53.557Z,963.13
2018-05-07T06:05:34.086Z,963.14
2018-05-07T06:06:14.605Z,963.11
2018-05-07T06:06:55.140Z,963.1
2018-05-07T06:07:35.663Z,963.05
2018-05-07T06:08:16.197Z,963.09
2018-05-07T06:08:56.798Z,963.14
2018-05-07T06:09:37.253Z,963.13
2018-05-07T06:10:17.784Z,963.15
2018-05-07T06:10:58.314Z,963.15
2018-05-07T06:11:38.842Z,963.15
2018-05-07T06:12:19.372Z,963.15
2018-05-07T06:12:59.900Z,963.12
2018-05-07T06:13:40.428Z,963.22
2018-05-07T06:14:20.960Z,963.17
2018-05-07T06:15:01.628Z,963.18
2018-05-07T06:15:42.019Z,963.19
2018-05-07T06:16:22.554Z,963.2
2018-05-07T06:17:03.082Z,963.17
2018-05-07T06:17:43.611Z,963.18
2018-05-07T06:18:24.140Z,963.21
2018-05-07T06:19:04.664Z,963.2
2018-05-07T06:19:45.188Z,963.19
2018-05-07T06:20:25.704Z,963.16
2018-05-07T06:21:06.237Z,963.24
2018-05-07T06:21:46.769Z,963.18
2018-05-07T06:22:27.300Z,963.21
2018-05-07T06:23:07.841Z,963.25
2018-05-07T06:23:48.363Z,963.18
2018-05-07T06:24:28.895Z,963.15
2018-05-07T06:25:09.427Z,963.22
2018-05-07T06:25:49.963Z,963.28
2018-05-07T06:26:30.490Z,963.22
2018-05-07T06:27:11.024Z,963.2
2018-05-07T06:27:51.550Z,963.26
2018-05-07T06:28:32.075Z,963.21
2018-05-07T06:29:12.609Z,963.18
2018-05-07T06:29:53.135Z,963.24
2018-05-07T06:30:33.666Z,963.28
2018-05-07T06:31:14.198Z,963.25
2018-05-07T06:31:54.730Z,963.22
2018-05-07T06:32:35.255Z,963.21
2018-05-07T06:33:15.764Z,963.17
2018-05-07T06:33:56.276Z,963.23
2018-05-07T06:34:36.800Z,963.21
2018-05-07T06:35:17.336Z,963.2
2018-05-07T06:35:57.831Z,963.16
2018-05-07T06:36:38.333Z,963.15
2018-05-07T06:37:18.851Z,963.2
2018-05-07T06:37:59.350Z,963.2
2018-05-07T06:38:39.875Z,963.18
2018-05-07T06:39:20.394Z,963.14
2018-05-07T06:40:00.927Z,963.16
2018-05-07T06:40:41.452Z,963.21
2018-05-07T06:41:21.977Z,963.2
2018-05-07T06:42:02.520Z,963.16
2018-05-07T06:42:43.051Z,963.16
2018-05-07T06:43:23.569Z,963.12
2018-05-07T06:44:04.096Z,963.19
2018-05-07T06:44:44.617Z,963.18
2018-05-07T06:45:25.140Z,963.19
2018-05-07T06:46:05.722Z,963.18
2018-05-07T06:46:46.186Z,963.21
2018-05-07T06:47:26.698Z,963.22
2018-05-07T06:48:07.226Z,963.25
2018-05-07T06:48:47.742Z,963.18
2018-05-07T06:49:28.264Z,963.2
2018-05-07T06:50:08.794Z,963.19
2018-05-07T06:50:49.319Z,963.19
2018-05-07T06:51:29.850Z,963.18
2018-05-07T06:52:10.441Z,963.21
2018-05-07T06:52:50.906Z,963.21
2018-05-07T06:53:31.447Z,963.24
2018-05-07T06:54:11.966Z,963.21
2018-05-07T06:54:52.488Z,963.22
2018-05-07T06:55:33.022Z,963.19
2018-05-07T06:56:13.545Z,963.18
2018-05-07T06:56:54.073Z,963.14
2018-05-07T06:57:34.599Z,963.2
2018-05-07T06:58:15.135Z,963.15
2018-05-07T06:58:55.664Z,963.18
2018-05-07T06:59:36.187Z,963.14
2018-05-07T07:00:16.717Z,963.23
2018-05-07T07:00:57.239Z,963.18
2018-05-07T07:01:37.764Z,963.15
2018-05-07T07:02:18.351Z,963.15
2018-05-07T07:02:58.963Z,963.18
2018-05-07T07:03:39.363Z,963.21
2018-05-07T07:04:19.882Z,963.2
2018-05-07T07:05:00.409Z,963.17
2018-05-07T07:05:40.989Z,963.16
2018-05-07T07:06:21.469Z,963.26
2018-05-07T07:07:02.001Z,963.22
2018-05-07T07:07:42.536Z,963.27
2018-05-07T07:08:23.184Z,963.27
2018-05-07T07:09:03.606Z,963.25
2018-05-07T07:09:44.131Z,963.22
2018-05-07T07:10:24.664Z,963.24
2018-05-07T07:11:05.192Z,963.23
2018-05-07T07:11:45.725Z,963.25
2018-05-07T07:12:26.258Z,963.25
2018-05-07T07:13:06.792Z,963.27
2018-05-07T07:13:47.323Z,963.28
2018-05-07T07:14:27.848Z,963.27
2018-05-07T07:15:08.373Z,963.31
2018-05-07T07:15:48.878Z,963.29
2018-05-07T07:16:29.438Z,963.29
2018-05-07T07:17:09.934Z,963.3
2018-05-07T07:17:50.463Z,963.28
2018-05-07T07:18:31.049Z,963.3
2018-05-07T07:19:11.583Z,963.3
2018-05-07T07:19:52.116Z,963.22
2018-05-07T07:20:32.646Z,963.24
2018-05-07T07:21:13.175Z,963.25
2018-05-07T07:21:53.735Z,963.26
2018-05-07T07:22:34.253Z,963.21
2018-05-07T07:23:14.776Z,963.18
2018-05-07T07:23:55.299Z,963.28
2018-05-07T07:24:35.818Z,963.26
2018-05-07T07:25:16.350Z,963.28
2018-05-07T07:25:56.897Z,963.27
2018-05-07T07:26:37.428Z,963.22
2018-05-07T07:27:17.958Z,963.26
2018-05-07T07:27:58.523Z,963.32
2018-05-07T07:28:39.020Z,963.32
2018-05-07T07:29:19.551Z,963.28
2018-05-07T07:30:00.084Z,963.36
2018-05-07T07:30:40.626Z,963.32
2018-05-07T07:31:21.152Z,963.31
2018-05-07T07:32:01.674Z,963.32
2018-05-07T07:32:42.181Z,963.32
2018-05-07T07:33:22.711Z,963.31
2018-05-07T07:34:03.293Z,963.31
2018-05-07T07:34:43.781Z,963.32
2018-05-07T07:35:24.310Z,963.25
2018-05-07T07:36:04.844Z,963.25
2018-05-07T07:36:45.372Z,963.31
2018-05-07T07:37:25.910Z,963.28
2018-05-07T07:38:06.451Z,963.29
2018-05-07T07:38:46.988Z,963.29
2018-05-07T07:39:27.582Z,963.27
2018-05-07T07:40:08.063Z,963.32
2018-05-07T07:40:48.598Z,963.36
2018-05-07T07:41:29.135Z,963.34
2018-05-07T07:42:09.675Z,963.36
2018-05-07T07:42:50.218Z,963.32
2018-05-07T07:43:30.757Z,963.31
2018-05-07T07:44:11.294Z,963.36
2018-05-07T07:44:51.839Z,963.32
2018-05-07T07:45:32.359Z,963.27
2018-05-07T07:46:12.896Z,963.31
2018-05-07T07:46:53.433Z,963.38
2018-05-07T07:47:33.964Z,963.24
2018-05-07T07:48:14.504Z,963.31
2018-05-07T07:48:55.043Z,963.24
2018-05-07T07:49:35.582Z,963.29
2018-05-07T07:50:16.162Z,963.25
2018-05-07T07:50:56.648Z,963.3
2018-05-07T07:51:37.187Z,963.35
2018-05-07T07:52:17.721Z,963.24
2018-05-07T07:52:58.223Z,963.31
2018-05-07T07:53:38.806Z,963.25
2018-05-07T07:54:19.265Z,963.23
2018-05-07T07:55:00.018Z,963.17
2018-05-07T07:55:40.552Z,963.23
2018-05-07T07:56:21.093Z,963.19
2018-05-07T07:57:01.644Z,963.19
2018-05-07T07:57:42.169Z,963.21
2018-05-07T07:58:22.709Z,963.27
2018-05-07T07:59:03.252Z,963.2
2018-05-07T07:59:43.776Z,963.19
2018-05-07T08:00:24.318Z,963.19
2018-05-07T08:01:04.851Z,963.18
2018-05-07T08:01:45.386Z,963.26
2018-05-07T08:02:25.905Z,963.24
2018-05-07T08:03:06.444Z,963.18
2018-05-07T08:03:46.967Z,963.17
2018-05-07T08:04:27.488Z,963.21
2018-05-07T08:05:08.024Z,963.21
2018-05-07T08:05:48.568Z,963.18
2018-05-07T08:06:29.093Z,963.15
2018-05-07T08:07:09.625Z,963.18
2018-05-07T08:07:50.200Z,963.16
2018-05-07T08:08:30.663Z,963.15
2018-05-07T08:09:11.160Z,963.15
2018-05-07T08:09:51.697Z,963.15
2018-05-07T08:10:32.203Z,963.07
2018-05-07T08:11:12.750Z,963.09
2018-05-07T08:11:53.270Z,963.12
2018-05-07T08:12:33.797Z,963.11
2018-05-07T08:13:14.297Z,963.08
2018-05-07T08:13:54.814Z,963.14
2018-05-07T08:14:35.325Z,963.12
2018-05-07T08:15:15.848Z,963.05
2018-05-07T08:15:56.368Z,963.07
2018-05-07T08:16:36.913Z,963.03
2018-05-07T08:17:17.444Z,963.07
2018-05-07T08:17:57.980Z,963.06
2018-05-07T08:18:38.522Z,963.06
2018-05-07T08:19:19.075Z,963.07
2018-05-07T08:19:59.620Z,963.06
2018-05-07T08:20:40.158Z,963.09
2018-05-07T08:21:20.704Z,963.06
2018-05-07T08:22:01.248Z,963.09
2018-05-07T08:22:41.788Z,963.15
2018-05-07T08:23:22.333Z,963.05
2018-05-07T08:24:02.881Z,963.12
2018-05-07T08:24:43.441Z,963.11
2018-05-07T08:25:23.965Z,963.11
2018-05-07T08:26:04.509Z,963.08
2018-05-07T08:26:45.045Z,963.11
2018-05-07T08:27:25.590Z,963.12